Time;durP1;ratioP1;P1;durP2;ratioP2;P2;SDS_P1;SDS_P2;PMS_P1;PMS_P2;Temp;Humidity;BMP_temperature;BMP_pressure;BME280_temperature;BME280_humidity;BME280_pressure;Samples;Min_cycle;Max_cycle;Signal;HPM_P1;HPM_P2
2022/06/02 00:02:39;;;;;;;8.85;6.15;;;;;;;14.49;100.00;100025.47;6273262;28;20045;-74
2022/06/02 00:05:50;;;;;;;9.07;6.35;;;;;;;14.47;100.00;100022.13;6273351;28;20494;-74
2022/06/02 00:09:12;;;;;;;7.75;5.88;;;;;;;14.39;100.00;100024.56;6273289;28;20045;-74
2022/06/02 00:12:24;;;;;;;9.63;6.55;;;;;;;14.38;100.00;100022.88;6271743;28;20422;-74
2022/06/02 00:15:43;;;;;;;8.68;6.55;;;;;;;14.29;100.00;100019.16;6270901;28;20055;-74
2022/06/02 00:18:53;;;;;;;9.02;6.47;;;;;;;14.30;100.00;100022.63;6304926;28;20505;-74
2022/06/02 00:22:14;;;;;;;10.27;6.80;;;;;;;14.25;100.00;100030.03;6272985;28;20049;-74
2022/06/02 00:25:26;;;;;;;10.63;6.68;;;;;;;14.19;100.00;100028.72;6273006;28;20057;-74
2022/06/02 00:29:18;;;;;;;12.70;7.00;;;;;;;14.18;100.00;100031.44;6272792;28;20056;-74
2022/06/02 00:32:40;;;;;;;9.40;6.18;;;;;;;14.14;100.00;100040.50;6250439;28;20057;-74
2022/06/02 00:35:57;;;;;;;8.95;6.35;;;;;;;14.04;100.00;100029.84;6272762;28;20045;-74
2022/06/02 00:38:59;;;;;;;9.88;6.18;;;;;;;14.07;100.00;100032.25;6272739;28;20044;-75
2022/06/02 00:42:40;;;;;;;9.75;6.78;;;;;;;14.08;100.00;100028.66;6271893;28;20076;-74
2022/06/02 00:45:43;;;;;;;11.70;6.65;;;;;;;14.03;100.00;100028.19;6272556;28;20072;-75
2022/06/02 00:48:56;;;;;;;9.77;6.85;;;;;;;14.02;100.00;100023.88;6271307;28;20086;-75
2022/06/02 00:52:17;;;;;;;9.63;6.07;;;;;;;13.96;100.00;100025.22;6272158;28;20037;-74
2022/06/02 00:59:48;;;;;;;11.23;6.45;;;;;;;13.81;100.00;100014.06;6272392;28;20040;-74
2022/06/02 01:03:03;;;;;;;8.23;6.53;;;;;;;13.78;100.00;100014.31;6272138;28;20063;-74
2022/06/02 01:06:19;;;;;;;9.23;6.50;;;;;;;13.76;100.00;100013.59;6271234;28;20045;-74
2022/06/02 01:09:32;;;;;;;11.60;7.32;;;;;;;13.72;100.00;100017.41;6272238;28;20377;-74
2022/06/02 01:12:35;;;;;;;8.68;6.50;;;;;;;13.72;100.00;100022.63;6271162;28;20412;-74
2022/06/02 01:16:05;;;;;;;9.82;6.57;;;;;;;13.66;100.00;100009.97;6271567;28;20045;-74
2022/06/02 01:19:30;;;;;;;9.98;6.03;;;;;;;13.59;100.00;100011.38;6273403;28;20053;-75
2022/06/02 01:23:02;;;;;;;11.57;6.05;;;;;;;13.64;100.00;100007.47;6286168;28;20036;-74
2022/06/02 01:26:26;;;;;;;8.55;6.72;;;;;;;13.51;100.00;100001.47;6276764;28;20091;-74
2022/06/02 01:29:32;;;;;;;8.52;6.10;;;;;;;13.45;100.00;100007.19;6276191;28;20044;-75
2022/06/02 01:32:49;;;;;;;9.05;5.72;;;;;;;13.40;100.00;100006.66;6301017;28;20071;-74
2022/06/02 01:35:52;;;;;;;8.45;5.63;;;;;;;13.46;100.00;100008.84;6299929;28;20068;-75
2022/06/02 01:39:00;;;;;;;6.20;5.25;;;;;;;13.44;100.00;100006.31;6300953;28;20044;-75
2022/06/02 01:42:08;;;;;;;9.30;5.80;;;;;;;13.39;100.00;100005.00;6278403;28;20041;-74
2022/06/02 01:45:18;;;;;;;9.98;5.57;;;;;;;13.34;100.00;100004.50;6275787;28;20057;-74
2022/06/02 01:48:19;;;;;;;10.23;5.50;;;;;;;13.27;100.00;100006.69;6274724;28;20124;-74
2022/06/02 01:51:49;;;;;;;7.88;5.70;;;;;;;13.35;100.00;100007.00;6275736;28;20047;-74
2022/06/02 01:55:27;;;;;;;8.52;5.18;;;;;;;13.30;100.00;100001.25;6275817;28;20041;-74
2022/06/02 01:58:47;;;;;;;7.10;5.10;;;;;;;13.18;100.00;100005.59;6275715;28;20518;-74
2022/06/02 02:02:02;;;;;;;6.45;5.28;;;;;;;13.22;100.00;99996.56;6275416;28;20051;-74
2022/06/02 02:05:13;;;;;;;7.70;4.90;;;;;;;13.20;100.00;99997.59;6274353;28;20041;-74
2022/06/02 02:08:20;;;;;;;7.88;5.30;;;;;;;13.04;100.00;100011.81;6275591;28;20494;-74
2022/06/02 02:11:51;;;;;;;8.55;5.30;;;;;;;12.90;100.00;100002.31;6275273;28;20040;-74
2022/06/02 02:15:15;;;;;;;8.77;5.30;;;;;;;12.83;100.00;100002.91;6275194;28;20044;-74
2022/06/02 02:18:35;;;;;;;7.75;5.38;;;;;;;12.73;100.00;99989.63;6273947;28;20037;-74
2022/06/02 02:21:49;;;;;;;8.73;5.95;;;;;;;12.72;100.00;99995.78;6273840;28;20045;-74
2022/06/02 02:25:10;;;;;;;8.13;5.20;;;;;;;12.70;100.00;99998.53;6274940;28;20468;-74
2022/06/02 02:28:17;;;;;;;7.32;5.82;;;;;;;12.73;100.00;99994.03;6274923;28;20507;-74
2022/06/02 02:31:20;;;;;;;8.63;5.70;;;;;;;12.75;100.00;99990.34;6274786;28;20075;-74
2022/06/02 02:34:37;;;;;;;8.13;5.50;;;;;;;12.82;100.00;99996.78;6274806;28;20450;-75
2022/06/02 02:37:47;;;;;;;13.55;6.85;;;;;;;12.79;100.00;99997.03;6274224;28;20399;-75
2022/06/02 02:40:54;;;;;;;9.77;8.02;;;;;;;12.76;100.00;100001.63;6274729;28;20045;-75
2022/06/02 02:44:05;;;;;;;11.85;7.35;;;;;;;12.66;100.00;99999.69;6274386;28;20403;-75
2022/06/02 02:47:27;;;;;;;10.38;7.93;;;;;;;12.68;100.00;99999.56;6273246;28;20084;-75
2022/06/02 02:50:34;;;;;;;10.43;7.25;;;;;;;12.75;100.00;100002.59;6274604;28;20043;-75
2022/06/02 02:53:46;;;;;;;11.00;7.65;;;;;;;12.75;100.00;100000.81;6273094;28;20044;-74
2022/06/02 02:57:02;;;;;;;11.37;7.00;;;;;;;12.73;100.00;99996.63;6273134;28;20041;-74
2022/06/02 03:00:03;;;;;;;10.57;7.20;;;;;;;12.74;100.00;99990.44;6274153;28;20053;-74
2022/06/02 03:03:15;;;;;;;10.27;7.15;;;;;;;12.79;100.00;99996.22;6274085;28;20067;-74
2022/06/02 03:06:27;;;;;;;10.07;6.80;;;;;;;12.86;100.00;99997.41;6272815;28;20051;-74
2022/06/02 03:09:40;;;;;;;11.60;7.38;;;;;;;12.88;100.00;99992.91;6272862;28;20041;-74
2022/06/02 03:13:02;;;;;;;10.85;7.93;;;;;;;12.94;100.00;99982.00;6273861;28;20498;-75
2022/06/02 03:16:08;;;;;;;11.05;7.85;;;;;;;13.03;100.00;99983.09;6272681;28;20191;-75
2022/06/02 03:19:12;;;;;;;13.43;8.23;;;;;;;13.16;100.00;99988.28;6272509;28;20041;-74
2022/06/02 03:22:37;;;;;;;12.20;7.93;;;;;;;13.20;100.00;99995.84;6273693;28;20041;-74
2022/06/02 03:25:48;;;;;;;10.98;7.13;;;;;;;13.22;100.00;99982.59;6272405;28;20045;-74
2022/06/02 03:28:57;;;;;;;13.35;7.00;;;;;;;13.35;100.00;99987.84;6273599;28;20041;-74
2022/06/02 03:32:08;;;;;;;11.63;7.55;;;;;;;13.44;100.00;99987.97;6273309;28;20439;-74
2022/06/02 03:35:31;;;;;;;10.80;6.85;;;;;;;13.53;100.00;99991.72;6273482;28;20098;-75
2022/06/02 03:38:42;;;;;;;11.77;7.30;;;;;;;13.63;100.00;99997.94;6273200;28;20056;-74
2022/06/02 03:42:00;;;;;;;9.77;6.97;;;;;;;13.71;100.00;99997.34;6273087;28;20045;-74
2022/06/02 03:45:51;;;;;;;9.18;7.05;;;;;;;13.82;100.00;99996.56;6272983;28;20489;-74
2022/06/02 03:49:13;;;;;;;10.60;7.22;;;;;;;13.99;100.00;100005.78;6246211;28;20056;-74
2022/06/02 03:52:37;;;;;;;11.40;6.35;;;;;;;14.11;100.00;100007.47;6272887;28;20059;-74
2022/06/02 03:56:10;;;;;;;10.20;5.97;;;;;;;14.18;100.00;100007.81;6272826;28;20065;-74
2022/06/02 03:59:27;;;;;;;10.23;5.65;;;;;;;14.39;100.00;100019.31;6272616;28;20052;-74
2022/06/02 04:02:36;;;;;;;7.85;5.20;;;;;;;14.55;100.00;100020.72;6271499;28;20091;-74
2022/06/02 04:06:06;;;;;;;6.53;4.50;;;;;;;14.67;100.00;100011.91;6271622;28;20386;-74
2022/06/02 04:09:21;;;;;;;9.45;5.00;;;;;;;14.77;100.00;100015.50;6271411;28;20041;-74
2022/06/02 04:16:22;;;;;;;5.45;4.35;;;;;;;15.00;100.00;100008.41;6272478;28;20037;-74
2022/06/02 04:23:37;;;;;;;5.47;4.18;;;;;;;15.16;100.00;100007.19;6272195;28;20037;-75
2022/06/02 04:27:14;;;;;;;7.43;4.28;;;;;;;15.23;100.00;100009.16;6272429;28;20091;-75
2022/06/02 04:30:47;;;;;;;8.35;4.78;;;;;;;15.36;100.00;100008.16;6271062;28;20381;-75
2022/06/02 04:34:06;;;;;;;;;;;;;;;15.49;100.00;100022.00;6272594;28;20483;-75
2022/06/02 04:37:40;;;;;;;12.38;6.40;;;;;;;15.65;100.00;100027.66;6272067;28;19928;-76
2022/06/02 04:40:41;;;;;;;13.30;6.45;;;;;;;15.81;100.00;100024.59;6271259;28;20041;-76
2022/06/02 04:44:07;;;;;;;10.32;5.10;;;;;;;15.94;100.00;100026.19;6272070;28;20059;-75
2022/06/02 04:47:15;;;;;;;10.85;4.65;;;;;;;16.05;100.00;100023.53;6271134;28;20045;-75
2022/06/02 04:50:27;;;;;;;7.47;4.20;;;;;;;16.18;100.00;100032.03;6271998;28;20119;-75
2022/06/02 04:53:36;;;;;;;8.53;3.87;;;;;;;16.24;100.00;100031.50;6271948;28;20048;-75
2022/06/02 04:56:57;;;;;;;5.82;3.63;;;;;;;16.35;99.09;100040.28;6270662;28;20120;-75
2022/06/02 05:00:16;;;;;;;6.22;3.58;;;;;;;16.44;98.70;100029.00;6270817;28;20451;-75
2022/06/02 05:03:27;;;;;;;6.72;3.72;;;;;;;16.54;95.11;100031.66;6275380;28;20063;-75
2022/06/02 05:06:34;;;;;;;;;;;;;;;16.73;95.66;100029.09;6277566;28;20399;-76
2022/06/02 05:09:51;;;;;;;5.85;3.15;;;;;;;16.85;95.08;100038.59;6276752;28;19925;-76
2022/06/02 05:12:52;;;;;;;4.05;3.00;;;;;;;17.00;95.77;100043.47;6275569;28;20174;-75
2022/06/02 05:15:53;;;;;;;4.25;3.03;;;;;;;17.14;96.69;100045.72;6276488;28;20048;-75
2022/06/02 05:19:32;;;;;;;4.13;3.33;;;;;;;17.33;92.50;100048.38;6290659;28;20503;-75
2022/06/02 05:22:41;;;;;;;7.32;4.43;;;;;;;17.56;90.63;100040.22;6276577;28;20077;-74
2022/06/02 05:26:02;;;;;;;8.48;3.70;;;;;;;17.79;89.67;100045.19;6300032;28;20372;-75
2022/06/02 05:29:03;;;;;;;3.60;2.83;;;;;;;18.01;87.32;100055.47;6294653;28;20411;-75
2022/06/02 05:33:00;;;;;;;6.32;2.95;;;;;;;18.26;84.70;100062.00;6276206;28;20044;-75
2022/06/02 05:36:26;;;;;;;4.10;2.85;;;;;;;18.38;85.09;100064.44;6256818;28;20052;-75
2022/06/02 05:39:40;;;;;;;7.72;3.05;;;;;;;18.42;80.05;100055.25;6257470;28;20063;-75
2022/06/02 05:42:50;;;;;;;5.78;2.85;;;;;;;18.72;85.97;100054.19;6274614;28;20049;-75
2022/06/02 05:46:06;;;;;;;5.90;3.13;;;;;;;18.93;84.00;100061.88;6275967;28;20049;-75
2022/06/02 05:49:10;;;;;;;7.38;2.83;;;;;;;19.11;80.66;100060.13;6274708;28;20128;-75
2022/06/02 05:52:23;;;;;;;4.53;2.42;;;;;;;19.41;76.16;100060.72;6274571;28;20045;-75
2022/06/02 05:55:53;;;;;;;2.80;2.30;;;;;;;19.71;72.06;100059.56;6276090;28;20040;-76
2022/06/02 05:59:18;;;;;;;6.05;2.30;;;;;;;20.23;72.37;100050.00;6282837;28;20507;-75
2022/06/02 06:02:39;;;;;;;7.07;2.72;;;;;;;20.58;72.97;100058.81;6291759;28;20048;-75
2022/06/02 06:05:56;;;;;;;8.43;3.00;;;;;;;20.66;74.60;100065.00;6292991;28;20052;-75
2022/06/02 06:09:14;;;;;;;6.30;2.78;;;;;;;20.72;73.73;100051.13;6299230;28;20078;-75
2022/06/02 06:12:37;;;;;;;17.00;2.83;;;;;;;20.76;73.51;100056.94;6282547;28;20053;-75
2022/06/02 06:16:03;;;;;;;6.65;2.58;;;;;;;21.11;70.36;100066.50;6287249;28;20368;-75
2022/06/02 06:19:09;;;;;;;10.50;3.25;;;;;;;21.42;72.08;100063.28;6289583;28;20041;-75
2022/06/02 06:22:42;;;;;;;6.85;3.15;;;;;;;21.67;70.29;100064.13;6296977;28;20502;-75
2022/06/02 06:26:30;;;;;;;10.57;3.05;;;;;;;22.05;70.29;100053.00;6295513;28;20435;-76
2022/06/02 06:29:44;;;;;;;4.50;2.55;;;;;;;22.24;68.87;100051.84;6295118;28;20048;-76
2022/06/02 06:33:01;;;;;;;8.55;3.38;;;;;;;22.36;71.20;100062.94;6287432;28;20541;-77
2022/06/02 06:36:21;;;;;;;7.60;2.90;;;;;;;22.44;69.04;100061.06;6281105;28;20041;-76
2022/06/02 06:39:34;;;;;;;3.95;2.50;;;;;;;22.53;66.04;100067.22;6297070;28;20040;-76
2022/06/02 06:42:46;;;;;;;6.07;2.60;;;;;;;22.64;64.25;100069.50;6282363;28;20045;-76
2022/06/02 06:45:55;;;;;;;5.75;2.60;;;;;;;22.61;63.63;100072.53;6288537;28;20415;-75
2022/06/02 06:49:10;;;;;;;4.22;2.47;;;;;;;22.61;60.04;100077.84;6298789;28;20153;-75
2022/06/02 06:52:48;;;;;;;6.57;2.72;;;;;;;22.61;60.20;100080.50;6298614;28;20093;-75
2022/06/02 06:56:36;;;;;;;4.53;1.70;;;;;;;22.63;56.99;100075.84;6286873;28;20434;-76
2022/06/02 06:59:49;;;;;;;7.03;2.47;;;;;;;22.64;59.28;100079.31;6246829;28;20099;-77
2022/06/02 07:03:11;;;;;;;3.90;2.00;;;;;;;22.63;56.60;100083.81;6232146;28;20050;-77
2022/06/02 07:06:45;;;;;;;2.88;2.03;;;;;;;22.66;55.15;100088.78;6274123;28;20041;-76
2022/06/02 07:09:48;;;;;;;3.80;1.80;;;;;;;23.02;54.58;100088.34;6306556;28;20068;-75
2022/06/02 07:13:08;;;;;;;4.32;1.90;;;;;;;23.44;53.73;100094.25;6282622;28;20568;-75
2022/06/02 07:16:28;;;;;;;4.75;2.03;;;;;;;23.97;53.41;100094.38;6273685;28;20045;-75
2022/06/02 07:19:43;;;;;;;5.13;2.17;;;;;;;24.24;50.75;100096.47;6272531;28;20114;-75
2022/06/02 07:23:02;;;;;;;6.50;2.38;;;;;;;24.84;49.53;100093.88;6272376;28;20053;-75
2022/06/02 07:26:31;;;;;;;5.90;2.80;;;;;;;24.94;54.86;100095.22;6273418;28;20036;-75
2022/06/02 07:29:59;;;;;;;3.88;2.00;;;;;;;24.28;51.52;100087.09;6272402;28;20507;-75
2022/06/02 07:33:22;;;;;;;8.45;2.35;;;;;;;24.13;52.92;100096.91;6273363;28;20055;-76
2022/06/02 07:36:46;;;;;;;8.45;2.50;;;;;;;24.13;54.41;100096.91;6273298;28;20069;-75
2022/06/02 07:40:02;;;;;;;7.28;2.47;;;;;;;24.09;54.76;100098.28;6273449;28;20503;-76
2022/06/02 07:43:22;;;;;;;3.95;2.30;;;;;;;23.91;54.42;100095.94;6288936;28;20483;-76
2022/06/02 07:46:32;;;;;;;4.72;2.03;;;;;;;24.01;53.08;100098.34;6276687;28;20044;-76
2022/06/02 07:50:05;;;;;;;4.43;2.38;;;;;;;24.51;52.41;100091.56;6294678;28;20127;-76
2022/06/02 07:53:09;;;;;;;3.65;2.50;;;;;;;24.80;52.82;100089.91;6297767;28;20094;-76
2022/06/02 07:56:29;;;;;;;2.28;1.85;;;;;;;24.97;49.48;100096.69;6291244;28;20498;-75
2022/06/02 07:59:48;;;;;;;4.68;1.85;;;;;;;25.27;50.64;100102.81;6290681;28;20037;-75
2022/06/02 08:03:10;;;;;;;3.15;2.30;;;;;;;25.37;50.02;100102.53;6296627;28;20052;-76
2022/06/02 08:06:16;;;;;;;7.68;2.10;;;;;;;25.51;48.13;100104.31;6296409;28;20098;-76
2022/06/02 08:09:43;;;;;;;8.80;2.05;;;;;;;25.49;48.68;100103.69;6297516;28;20098;-75
2022/06/02 08:13:32;;;;;;;4.70;1.95;;;;;;;25.85;47.56;100099.28;6297744;28;20036;-75
2022/06/02 08:16:53;;;;;;;3.58;2.17;;;;;;;26.23;46.06;100102.53;6296245;28;20060;-77
2022/06/02 08:20:06;;;;;;;3.20;1.65;;;;;;;26.51;43.54;100113.19;6280895;28;20083;-76
2022/06/02 08:23:23;;;;;;;7.05;1.95;;;;;;;26.54;39.49;100119.97;6289117;28;20510;-76
2022/06/02 08:26:41;;;;;;;5.85;2.00;;;;;;;26.68;40.88;100124.41;6282209;28;20076;-76
2022/06/02 08:29:53;;;;;;;2.25;1.67;;;;;;;26.48;40.16;100124.28;6280955;28;20051;-77
2022/06/02 08:33:08;;;;;;;2.63;1.52;;;;;;;26.13;38.45;100126.91;6287796;28;20055;-77
2022/06/02 08:36:15;;;;;;;4.85;1.45;;;;;;;26.32;38.93;100127.25;6279405;28;20410;-77
2022/06/02 08:39:44;;;;;;;8.93;1.75;;;;;;;27.21;37.46;100133.75;6295741;28;20144;-77
2022/06/02 08:43:09;;;;;;;2.95;1.30;;;;;;;27.62;36.78;100136.34;6295801;28;20047;-77
2022/06/02 08:46:52;;;;;;;3.20;1.40;;;;;;;27.28;32.90;100139.97;6283010;28;20094;-77
2022/06/02 08:50:16;;;;;;;;;;;;;;;26.98;37.02;100134.06;6296098;28;20405;-77
2022/06/02 08:54:09;;;;;;;1.75;1.40;;;;;;;26.07;36.34;100137.56;6296823;28;19927;-77
2022/06/02 08:57:36;;;;;;;;;;;;;;;26.54;35.02;100136.03;6284815;28;20053;-77
2022/06/02 09:01:10;;;;;;;3.75;1.20;;;;;;;26.57;34.03;100137.50;6296643;28;20401;-76
2022/06/02 09:04:45;;;;;;;1.50;1.40;;;;;;;27.48;35.13;100137.34;6295426;28;20437;-76
2022/06/02 09:08:06;;;;;;;1.20;1.10;;;;;;;27.91;32.95;100147.78;6297164;28;20052;-76
2022/06/02 09:11:27;;;;;;;4.40;1.40;;;;;;;28.01;34.54;100142.81;6295448;28;20106;-76
2022/06/02 09:14:42;;;;;;;3.17;1.30;;;;;;;27.77;36.80;100144.22;6296560;28;20041;-76
2022/06/02 09:18:04;;;;;;;2.00;1.30;;;;;;;28.06;33.02;100132.28;6296485;28;20045;-76
2022/06/02 09:21:25;;;;;;;1.83;1.48;;;;;;;28.04;31.04;100139.72;6295359;28;20041;-76
2022/06/02 09:24:52;;;;;;;2.07;1.00;;;;;;;28.94;32.29;100134.66;6296564;28;20453;-77
2022/06/02 09:28:10;;;;;;;6.63;1.63;;;;;;;28.06;33.68;100134.97;6295161;28;20036;-77
2022/06/02 09:31:47;;;;;;;1.88;1.45;;;;;;;28.69;33.93;100136.41;6295154;28;20105;-76
2022/06/02 09:35:24;;;;;;;5.68;1.35;;;;;;;27.60;33.67;100130.38;6296250;28;20055;-75
2022/06/02 09:38:39;;;;;;;2.38;1.10;;;;;;;27.63;31.46;100131.81;6296165;28;20041;-76
2022/06/02 09:41:57;;;;;;;1.52;0.98;;;;;;;28.04;29.54;100137.03;6294991;28;20055;-76
2022/06/02 09:45:13;;;;;;;1.42;1.20;;;;;;;28.37;30.35;100144.25;6296010;28;20060;-76
2022/06/02 09:48:26;;;;;;;4.47;1.35;;;;;;;27.53;31.61;100148.31;6298002;28;20475;-77
2022/06/02 09:51:43;;;;;;;3.50;1.60;;;;;;;27.65;35.64;100140.47;6299473;28;20580;-77
2022/06/02 09:54:46;;;;;;;4.50;1.23;;;;;;;27.24;33.94;100146.75;6299273;28;20510;-76
2022/06/02 09:58:17;;;;;;;4.00;1.10;;;;;;;27.36;31.56;100145.16;6300463;28;20058;-75
2022/06/02 10:02:20;;;;;;;1.90;1.37;;;;;;;28.07;29.82;100142.00;6299103;28;20426;-77
2022/06/02 10:05:23;;;;;;;1.95;1.00;;;;;;;28.01;30.38;100136.66;6273290;28;20302;-75
2022/06/02 10:08:53;;;;;;;5.13;1.30;;;;;;;28.39;32.25;100141.38;6299030;28;20491;-77
2022/06/02 10:12:55;;;;;;;3.33;1.33;;;;;;;27.56;32.11;100136.34;6297549;28;20052;-77
2022/06/02 10:16:16;;;;;;;7.18;1.33;;;;;;;27.60;31.20;100142.97;6298789;28;20045;-76
2022/06/02 10:19:17;;;;;;;3.60;1.30;;;;;;;28.05;32.40;100138.69;6300557;28;20307;-75
2022/06/02 10:22:19;;;;;;;2.70;1.30;;;;;;;28.34;30.05;100140.13;6298740;28;20403;-77
2022/06/02 10:25:27;;;;;;;3.15;1.02;;;;;;;28.79;29.80;100134.09;6298624;28;20048;-77
2022/06/02 10:28:56;;;;;;;3.08;1.00;;;;;;;28.44;29.15;100131.66;6281866;28;20139;-76
2022/06/02 10:32:20;;;;;;;3.03;1.05;;;;;;;29.00;28.30;100133.00;6280242;28;20198;-76
2022/06/02 10:35:58;;;;;;;2.20;1.05;;;;;;;28.58;28.11;100134.34;6299558;28;20045;-76
2022/06/02 10:39:32;;;;;;;4.22;1.33;;;;;;;29.86;34.04;100129.06;6279150;28;20439;-77
2022/06/02 10:42:59;;;;;;;2.30;1.00;;;;;;;30.06;29.22;100126.22;6286163;28;20107;-77
2022/06/02 10:46:02;;;;;;;3.75;1.23;;;;;;;29.81;29.52;100125.34;6293562;28;20056;-77
2022/06/02 10:49:14;;;;;;;2.70;0.90;;;;;;;30.16;28.08;100128.38;6281312;28;20414;-76
2022/06/02 10:52:55;;;;;;;2.10;1.20;;;;;;;29.31;28.68;100126.06;6298108;28;20048;-75
2022/06/02 10:56:08;;;;;;;3.53;1.10;;;;;;;29.32;27.86;100131.22;6299140;28;20032;-75
2022/06/02 10:59:25;;;;;;;1.48;1.23;;;;;;;29.61;31.29;100115.56;6298260;28;20048;-76
2022/06/02 11:03:08;;;;;;;2.58;1.20;;;;;;;30.39;30.45;100117.00;6281359;28;20041;-76
2022/06/02 11:06:24;;;;;;;2.95;1.30;;;;;;;29.80;29.68;100123.72;6274055;28;20047;-75
2022/06/02 11:09:50;;;;;;;3.25;1.20;;;;;;;30.46;28.54;100123.16;6272865;28;20045;-78
2022/06/02 11:13:31;;;;;;;1.00;0.90;;;;;;;29.90;27.61;100121.38;6295009;28;20048;-76
2022/06/02 11:16:50;;;;;;;3.53;1.25;;;;;;;29.50;27.65;100114.34;6297902;28;20491;-76
2022/06/02 11:20:28;;;;;;;3.20;1.10;;;;;;;29.46;27.04;100123.06;6279175;28;20415;-76
2022/06/02 11:23:58;;;;;;;4.22;1.33;;;;;;;28.96;28.06;100112.97;6273709;28;20041;-76
2022/06/02 11:27:31;;;;;;;5.03;1.10;;;;;;;29.56;28.55;100126.13;6269724;28;20053;-75
2022/06/02 11:30:52;;;;;;;2.55;1.23;;;;;;;30.33;28.27;100116.06;6273148;28;20049;-76
2022/06/02 11:34:15;;;;;;;2.78;1.20;;;;;;;30.57;26.86;100113.53;6293472;28;20078;-77
2022/06/02 11:37:59;;;;;;;3.10;1.20;;;;;;;30.23;30.18;100112.16;6298579;28;20051;-75
2022/06/02 11:41:02;;;;;;;2.00;1.00;;;;;;;29.78;27.45;100118.56;6298548;28;20054;-75
2022/06/02 11:44:12;;;;;;;2.13;1.20;;;;;;;30.13;27.86;100118.06;6295018;28;20048;-77
2022/06/02 11:47:16;;;;;;;4.25;1.23;;;;;;;29.19;28.33;100108.97;6273684;28;20051;-76
2022/06/02 11:50:44;;;;;;;3.08;1.40;;;;;;;30.32;28.76;100097.44;6286439;28;20052;-75
2022/06/02 11:53:54;;;;;;;1.90;1.40;;;;;;;30.57;25.92;100099.25;6296648;28;20198;-77
2022/06/02 11:57:18;;;;;;;1.40;1.10;;;;;;;30.60;27.53;100102.31;6294102;28;20060;-77
2022/06/02 12:00:27;;;;;;;3.20;0.88;;;;;;;29.87;26.53;100098.41;6294198;28;20459;-75
2022/06/02 12:04:15;;;;;;;1.73;0.93;;;;;;;29.29;28.13;100091.34;6297911;28;20502;-76
2022/06/02 12:07:48;;;;;;;2.97;1.20;;;;;;;30.10;27.44;100092.44;6296211;28;20487;-75
2022/06/02 12:10:55;;;;;;;3.08;1.35;;;;;;;30.78;27.90;100089.88;6296242;28;20037;-77
2022/06/02 12:14:16;;;;;;;2.58;1.10;;;;;;;30.99;26.10;100083.22;6296216;28;20193;-77
2022/06/02 12:17:47;;;;;;;3.25;1.42;;;;;;;31.26;26.15;100087.22;6297295;28;20044;-76
2022/06/02 12:21:19;;;;;;;2.58;1.20;;;;;;;31.23;25.08;100079.56;6296004;28;20052;-76
2022/06/02 12:24:55;;;;;;;2.88;1.05;;;;;;;30.76;27.26;100087.41;6296109;28;20509;-75
2022/06/02 12:28:35;;;;;;;7.68;1.27;;;;;;;30.32;26.77;100087.47;6290029;28;20046;-77
2022/06/02 12:31:54;;;;;;;2.05;1.27;;;;;;;30.96;26.40;100086.38;6293471;28;20059;-75
2022/06/02 12:35:16;;;;;;;2.55;1.00;;;;;;;31.02;24.74;100080.91;6289351;28;20040;-77
2022/06/02 12:38:44;;;;;;;5.50;1.10;;;;;;;30.35;25.73;100080.00;6295157;28;20044;-75
2022/06/02 12:42:22;;;;;;;1.52;1.20;;;;;;;30.24;27.61;100084.22;6270967;28;20037;-76
2022/06/02 12:45:35;;;;;;;1.88;1.10;;;;;;;29.95;26.85;100083.06;6270787;28;20496;-77
2022/06/02 12:48:52;;;;;;;1.10;1.00;;;;;;;29.77;26.09;100087.31;6272016;28;20124;-78
2022/06/02 12:52:30;;;;;;;2.83;1.15;;;;;;;30.26;28.51;100088.34;6270850;28;20033;-76
2022/06/02 12:55:40;;;;;;;3.85;1.20;;;;;;;29.91;26.10;100086.16;6272042;28;20045;-77
2022/06/02 12:58:59;;;;;;;2.88;1.10;;;;;;;29.49;26.25;100088.53;6270728;28;20048;-77
2022/06/02 13:02:27;;;;;;;2.00;1.13;;;;;;;29.24;27.03;100091.16;6272020;28;20522;-75
2022/06/02 13:05:46;;;;;;;1.85;1.10;;;;;;;29.77;27.21;100089.19;6270707;28;20072;-76
2022/06/02 13:09:11;;;;;;;1.52;1.20;;;;;;;29.79;27.17;100096.00;6287381;28;20172;-77
2022/06/02 13:12:36;;;;;;;1.60;1.10;;;;;;;29.66;27.85;100083.44;6295491;28;20045;-77
2022/06/02 13:16:05;;;;;;;2.70;1.20;;;;;;;29.59;27.76;100088.06;6295689;28;20041;-76
2022/06/02 13:19:32;;;;;;;2.60;1.10;;;;;;;29.86;30.01;100086.03;6294527;28;20087;-74
2022/06/02 13:23:10;;;;;;;2.80;1.27;;;;;;;29.44;29.05;100082.16;6273723;28;20095;-76
2022/06/02 13:26:15;;;;;;;6.18;1.40;;;;;;;28.18;29.41;100083.41;6274992;28;20045;-76
2022/06/02 13:30:06;;;;;;;3.33;1.30;;;;;;;28.41;30.15;100088.31;6274758;28;20037;-75
2022/06/02 13:33:22;;;;;;;1.67;1.10;;;;;;;28.63;29.48;100092.41;6279137;28;20515;-73
2022/06/02 13:36:43;;;;;;;1.60;1.20;;;;;;;29.13;30.24;100081.91;6298609;28;20403;-73
2022/06/02 13:40:01;;;;;;;2.70;1.00;;;;;;;29.05;31.00;100084.00;6300662;28;20521;-74
2022/06/02 13:43:30;;;;;;;2.55;1.15;;;;;;;29.02;29.85;100089.81;6298808;28;20052;-74
2022/06/02 13:46:43;;;;;;;4.25;1.25;;;;;;;28.93;31.09;100097.25;6299368;28;20075;-76
2022/06/02 13:50:24;;;;;;;1.95;1.10;;;;;;;28.94;30.10;100097.06;6300598;28;20122;-76
2022/06/02 13:57:42;;;;;;;3.08;1.23;;;;;;;29.16;29.22;100098.63;6297587;28;20056;-75
2022/06/02 14:01:01;;;;;;;2.17;1.63;;;;;;;28.60;29.43;100108.13;6298537;28;20040;-77
2022/06/02 14:04:37;;;;;;;2.30;1.60;;;;;;;29.02;30.85;100105.94;6280322;28;20037;-75
2022/06/02 14:08:03;;;;;;;2.65;1.10;;;;;;;29.04;30.62;100111.91;6298862;28;20052;-77
2022/06/02 14:11:32;;;;;;;2.15;1.45;;;;;;;29.51;29.98;100101.75;6298042;28;20125;-76
2022/06/02 14:15:02;;;;;;;8.25;1.73;;;;;;;28.98;29.82;100105.50;6298968;28;20048;-76
2022/06/02 14:18:18;;;;;;;3.47;1.13;;;;;;;28.82;30.53;100098.75;6298569;28;20048;-75
2022/06/02 14:21:19;;;;;;;2.78;1.30;;;;;;;28.83;30.37;100086.19;6298505;28;20102;-75
2022/06/02 14:24:45;;;;;;;;;;;;;;;28.69;30.97;100094.25;6298942;28;20503;-75
2022/06/02 14:27:55;;;;;;;3.67;1.40;;;;;;;28.47;31.39;100103.59;6298448;28;20382;-76
2022/06/02 14:30:58;;;;;;;1.98;1.30;;;;;;;28.11;31.53;100096.84;6298432;28;20040;-75
2022/06/02 14:34:21;;;;;;;5.47;1.40;;;;;;;28.40;31.69;100100.09;6294905;28;20053;-76
2022/06/02 14:37:32;;;;;;;2.45;1.42;;;;;;;28.00;32.17;100105.47;6299405;28;20446;-77
2022/06/02 14:41:07;;;;;;;3.57;1.43;;;;;;;27.90;32.59;100109.41;6291866;28;20044;-76
2022/06/02 14:44:14;;;;;;;3.58;1.40;;;;;;;27.96;31.84;100107.75;6274325;28;20289;-76
2022/06/02 14:47:28;;;;;;;2.17;1.40;;;;;;;27.95;32.97;100102.63;6274335;28;20107;-75
2022/06/02 14:50:33;;;;;;;2.50;1.23;;;;;;;28.18;33.08;100099.50;6291281;28;20076;-76
2022/06/02 14:53:50;;;;;;;8.20;1.50;;;;;;;28.18;33.07;100099.50;6297795;28;20423;-76
2022/06/02 14:57:18;;;;;;;6.68;1.48;;;;;;;27.97;33.45;100100.56;6298859;28;20190;-76
2022/06/02 15:00:27;;;;;;;2.22;1.25;;;;;;;28.25;33.91;100101.16;6297717;28;20044;-76
2022/06/02 15:03:39;;;;;;;2.25;1.40;;;;;;;28.37;32.36;100090.59;6274557;28;20540;-77
2022/06/02 15:07:19;;;;;;;4.50;1.10;;;;;;;28.22;33.21;100082.78;6272823;28;20051;-76
2022/06/02 15:10:29;;;;;;;2.85;1.23;;;;;;;27.99;33.63;100085.09;6268941;28;20045;-75
2022/06/02 15:17:19;;;;;;;4.30;1.67;;;;;;;27.62;34.17;100084.63;6284188;28;20447;-77
2022/06/02 15:20:28;;;;;;;6.45;1.63;;;;;;;27.56;34.46;100083.56;6273550;28;20496;-75
2022/06/02 15:23:51;;;;;;;4.05;1.73;;;;;;;27.47;34.21;100082.13;6272383;28;20101;-75
2022/06/02 15:27:35;;;;;;;3.88;1.48;;;;;;;27.61;32.99;100088.31;6290407;28;20055;-75
2022/06/02 15:31:17;;;;;;;1.77;1.20;;;;;;;28.36;32.12;100093.50;6296880;28;20040;-76
2022/06/02 15:34:45;;;;;;;2.53;1.17;;;;;;;27.97;32.75;100085.28;6286784;28;20083;-75
2022/06/02 15:38:05;;;;;;;4.40;1.42;;;;;;;28.39;33.02;100083.16;6297897;28;20051;-76
2022/06/02 15:41:48;;;;;;;1.83;1.10;;;;;;;28.52;31.68;100088.53;6297870;28;20499;-76
2022/06/02 15:45:30;;;;;;;1.58;0.98;;;;;;;28.51;32.46;100091.41;6295738;28;20052;-76
2022/06/02 15:48:54;;;;;;;2.55;1.20;;;;;;;28.04;31.92;100087.94;6253704;28;20511;-76
2022/06/02 15:52:13;;;;;;;3.00;1.30;;;;;;;28.20;32.53;100089.38;6235869;28;20052;-76